Time;durP1;ratioP1;P1;durP2;ratioP2;P2;SDS_P1;SDS_P2;PMS_P1;PMS_P2;Temp;Humidity;BMP_temperature;BMP_pressure;BME280_temperature;BME280_humidity;BME280_pressure;Samples;Min_cycle;Max_cycle;Signal;HPM_P1;HPM_P2
2023/03/07 04:01:14;;;;;;;6.47;5.40;;;3.40;75.00;;;;;;5706203;23;20489;-75
2023/03/07 04:03:42;;;;;;;6.10;5.40;;;3.30;75.20;;;;;;4996474;28;20437;-75
2023/03/07 04:06:10;;;;;;;6.57;4.53;;;3.20;75.60;;;;;;4996350;28;20938;-75
2023/03/07 04:08:38;;;;;;;6.13;5.00;;;3.20;75.80;;;;;;4996446;28;20453;-75
2023/03/07 04:11:05;;;;;;;6.57;5.90;;;3.20;75.70;;;;;;4996297;28;20461;-74
2023/03/07 04:13:33;;;;;;;6.60;5.67;;;3.30;75.80;;;;;;4996444;28;20446;-73
2023/03/07 04:15:59;;;;;;;7.20;6.40;;;3.40;75.10;;;;;;5113329;23;20501;-74
2023/03/07 04:18:28;;;;;;;6.37;5.73;;;3.40;74.90;;;;;;4996370;28;20447;-74
2023/03/07 04:20:54;;;;;;;6.00;5.40;;;3.40;75.00;;;;;;4996124;28;20441;-75
2023/03/07 04:23:22;;;;;;;6.23;5.47;;;3.40;74.80;;;;;;4996036;28;20450;-74
2023/03/07 04:25:49;;;;;;;6.77;6.07;;;3.30;74.80;;;;;;4995995;28;20706;-76
2023/03/07 04:28:16;;;;;;;5.93;5.23;;;3.30;74.80;;;;;;4996009;28;20449;-73
2023/03/07 04:30:43;;;;;;;6.23;5.60;;;3.20;75.10;;;;;;4995770;28;20452;-74
2023/03/07 04:33:11;;;;;;;6.70;5.40;;;3.30;75.00;;;;;;4996265;28;20864;-75
2023/03/07 04:35:39;;;;;;;7.90;6.40;;;3.40;74.90;;;;;;4996034;28;20499;-75
2023/03/07 04:38:06;;;;;;;6.70;5.20;;;3.60;74.60;;;;;;4996225;28;20943;-75
2023/03/07 04:40:33;;;;;;;6.50;5.50;;;3.30;74.30;;;;;;4995688;28;20536;-74
2023/03/07 04:43:00;;;;;;;5.90;5.30;;;3.40;74.80;;;;;;4995985;28;20458;-74
2023/03/07 04:45:27;;;;;;;6.70;5.93;;;3.40;74.40;;;;;;4995351;28;20499;-74
2023/03/07 04:47:53;;;;;;;5.47;4.90;;;3.40;74.60;;;;;;4995754;28;20457;-74
2023/03/07 04:50:20;;;;;;;6.73;5.70;;;3.50;74.90;;;;;;4996560;28;20445;-74
2023/03/07 04:52:49;;;;;;;7.27;5.50;;;3.70;74.20;;;;;;4995838;28;20441;-74
2023/03/07 04:55:16;;;;;;;6.07;5.10;;;3.80;73.80;;;;;;4995399;28;20563;-73
2023/03/07 04:57:43;;;;;;;6.10;5.50;;;3.70;73.20;;;;;;4995319;28;20867;-74
2023/03/07 05:00:11;;;;;;;5.40;4.90;;;3.70;73.40;;;;;;4995578;28;20544;-74
2023/03/07 05:02:38;;;;;;;6.70;5.63;;;3.70;73.40;;;;;;4995350;28;20831;-73
2023/03/07 05:05:06;;;;;;;6.30;5.70;;;3.50;73.60;;;;;;4995319;28;20453;-74
2023/03/07 05:07:32;;;;;;;7.30;6.00;;;3.40;74.20;;;;;;4995754;28;20446;-74
2023/03/07 05:10:00;;;;;;;5.40;4.90;;;3.30;74.10;;;;;;4995540;28;20869;-74
2023/03/07 05:12:27;;;;;;;6.20;5.40;;;3.10;74.70;;;;;;4995182;28;20878;-74
2023/03/07 05:14:54;;;;;;;7.10;6.40;;;3.30;75.00;;;;;;4995386;28;20492;-74
2023/03/07 05:17:21;;;;;;;5.97;4.93;;;3.30;74.30;;;;;;4995146;28;20457;-74
2023/03/07 05:19:48;;;;;;;6.07;4.83;;;3.20;74.50;;;;;;4995100;28;20453;-75
2023/03/07 05:22:14;;;;;;;5.73;5.23;;;3.20;74.80;;;;;;4995398;28;20453;-74
2023/03/07 05:24:41;;;;;;;6.10;5.50;;;3.00;74.50;;;;;;4995110;28;20453;-74
2023/03/07 05:27:09;;;;;;;5.17;4.20;;;3.00;75.20;;;;;;4994817;28;20474;-74
2023/03/07 05:29:36;;;;;;;7.90;5.27;;;3.10;75.30;;;;;;4995000;28;20488;-74
2023/03/07 05:32:03;;;;;;;6.63;5.87;;;3.20;74.10;;;;;;4994711;28;20453;-74
2023/03/07 05:34:30;;;;;;;6.20;5.60;;;3.20;74.50;;;;;;4994695;28;20481;-74
2023/03/07 05:36:57;;;;;;;5.57;4.83;;;3.30;74.50;;;;;;4994454;28;20473;-73
2023/03/07 05:39:26;;;;;;;6.60;5.37;;;3.30;73.60;;;;;;4996319;28;20452;-74
2023/03/07 05:41:53;;;;;;;6.30;5.23;;;3.40;73.60;;;;;;5013043;28;20445;-75
2023/03/07 05:44:22;;;;;;;6.00;5.10;;;3.20;73.70;;;;;;5004843;28;20457;-74
2023/03/07 05:46:48;;;;;;;5.90;5.37;;;3.40;73.60;;;;;;4994783;28;20481;-74
2023/03/07 05:49:15;;;;;;;5.90;5.30;;;3.30;72.90;;;;;;4994561;28;20461;-74
2023/03/07 05:51:42;;;;;;;6.03;5.40;;;3.20;73.30;;;;;;4994579;28;20449;-74
2023/03/07 05:54:08;;;;;;;6.17;4.97;;;3.20;73.50;;;;;;4994758;28;20445;-75
2023/03/07 05:56:36;;;;;;;6.03;4.60;;;3.20;73.00;;;;;;4999763;28;20492;-75
2023/03/07 05:59:04;;;;;;;6.30;4.70;;;3.10;73.60;;;;;;5018885;28;20425;-74
2023/03/07 06:01:32;;;;;;;6.50;4.60;;;3.20;73.60;;;;;;4998160;28;20789;-75
2023/03/07 06:03:59;;;;;;;6.23;5.57;;;3.30;73.30;;;;;;4995795;28;20954;-74
2023/03/07 06:06:25;;;;;;;7.33;6.10;;;3.30;72.50;;;;;;4995073;28;20490;-74
2023/03/07 06:08:52;;;;;;;5.07;4.57;;;3.40;72.20;;;;;;4995111;28;20464;-74
2023/03/07 06:11:19;;;;;;;6.90;5.43;;;3.30;72.50;;;;;;4994711;28;20942;-74
2023/03/07 06:13:46;;;;;;;7.20;5.57;;;3.30;72.30;;;;;;4995257;28;20525;-75
2023/03/07 06:16:12;;;;;;;5.17;4.47;;;3.20;72.50;;;;;;4994484;28;20500;-74
2023/03/07 06:18:41;;;;;;;5.27;4.40;;;3.20;72.90;;;;;;4994662;28;20450;-75
2023/03/07 06:21:10;;;;;;;5.80;4.73;;;3.10;72.70;;;;;;4994303;28;20576;-75
2023/03/07 06:23:37;;;;;;;6.17;5.57;;;3.10;72.80;;;;;;4994327;28;20938;-75
2023/03/07 06:26:06;;;;;;;5.90;4.67;;;3.20;72.60;;;;;;4994580;28;20472;-75
2023/03/07 06:28:33;;;;;;;5.20;4.43;;;3.20;72.10;;;;;;4994682;28;20453;-75
2023/03/07 06:31:00;;;;;;;7.17;5.90;;;3.20;72.10;;;;;;4994583;28;20461;-75
2023/03/07 06:33:26;;;;;;;6.07;4.93;;;3.10;72.60;;;;;;4994685;28;20445;-75
2023/03/07 06:35:54;;;;;;;5.33;4.60;;;3.00;72.50;;;;;;4994203;28;20879;-75
2023/03/07 06:38:21;;;;;;;6.60;6.00;;;3.10;73.10;;;;;;4994669;28;20450;-75
2023/03/07 06:40:55;;;;;;;7.63;5.30;;;3.20;72.20;;;;;;4994039;28;20445;-74
2023/03/07 06:43:22;;;;;;;6.47;5.50;;;3.30;72.20;;;;;;4994400;28;20442;-74
2023/03/07 06:45:48;;;;;;;4.70;4.10;;;3.50;71.70;;;;;;4994245;28;20468;-75
2023/03/07 06:48:16;;;;;;;5.53;4.50;;;3.60;71.40;;;;;;4993670;28;20939;-73
2023/03/07 06:50:44;;;;;;;5.80;5.17;;;3.60;70.80;;;;;;4993602;28;20457;-74
2023/03/07 06:53:12;;;;;;;6.93;5.37;;;3.40;71.30;;;;;;4993977;28;20461;-73
2023/03/07 06:55:39;;;;;;;5.50;4.83;;;3.30;72.10;;;;;;4996890;28;20489;-74
2023/03/07 06:58:06;;;;;;;7.07;6.30;;;3.30;71.90;;;;;;4997347;28;20938;-74
2023/03/07 07:00:33;;;;;;;5.33;4.70;;;3.40;72.20;;;;;;4997293;28;20828;-73
2023/03/07 07:02:59;;;;;;;5.33;3.93;;;3.60;71.70;;;;;;4997484;28;20445;-74
2023/03/07 07:05:26;;;;;;;4.90;3.50;;;3.80;71.00;;;;;;4997395;28;20465;-74
2023/03/07 07:07:53;;;;;;;4.73;4.00;;;3.80;70.30;;;;;;4997271;28;20504;-73
2023/03/07 07:10:21;;;;;;;4.93;4.40;;;3.90;70.70;;;;;;4997855;28;20476;-73
2023/03/07 07:12:47;;;;;;;5.83;4.43;;;4.00;70.00;;;;;;4997027;28;20516;-74
2023/03/07 07:15:14;;;;;;;4.63;4.10;;;4.10;70.60;;;;;;4996594;28;20519;-73
2023/03/07 07:17:41;;;;;;;4.90;4.40;;;4.20;69.30;;;;;;4997085;28;20442;-73
2023/03/07 07:20:10;;;;;;;4.90;4.40;;;4.40;69.40;;;;;;4996916;28;20453;-73
2023/03/07 07:22:36;;;;;;;5.00;3.93;;;4.40;69.30;;;;;;4997013;28;20460;-73
2023/03/07 07:25:03;;;;;;;4.27;3.80;;;4.30;68.80;;;;;;4997415;28;20445;-74
2023/03/07 07:27:31;;;;;;;5.27;4.50;;;4.30;68.70;;;;;;4996970;28;20456;-73
2023/03/07 07:29:58;;;;;;;4.33;3.77;;;4.30;69.30;;;;;;4996919;28;20523;-73
2023/03/07 07:32:25;;;;;;;5.10;3.90;;;4.40;69.20;;;;;;4996779;28;20951;-73
2023/03/07 07:34:51;;;;;;;6.17;5.57;;;4.60;68.90;;;;;;4996241;28;20867;-74
2023/03/07 07:37:18;;;;;;;5.73;4.50;;;4.70;68.00;;;;;;4996700;28;20862;-73
2023/03/07 07:39:45;;;;;;;4.53;3.77;;;4.70;68.30;;;;;;4996635;28;20460;-74
2023/03/07 07:42:12;;;;;;;5.00;4.27;;;4.60;68.10;;;;;;4996614;28;20449;-74
2023/03/07 07:44:40;;;;;;;4.93;4.10;;;4.60;68.40;;;;;;4996472;28;20464;-73
2023/03/07 07:47:07;;;;;;;5.27;4.50;;;4.60;68.10;;;;;;4996238;28;20458;-74
2023/03/07 07:49:34;;;;;;;5.70;4.27;;;4.80;68.10;;;;;;4996109;28;20861;-74
2023/03/07 07:52:01;;;;;;;5.90;4.43;;;5.00;67.90;;;;;;4997576;28;20449;-73
2023/03/07 07:54:27;;;;;;;5.10;4.27;;;5.00;67.20;;;;;;4997032;28;20457;-73
2023/03/07 07:56:56;;;;;;;5.43;4.50;;;5.00;67.30;;;;;;4996782;28;20579;-73
2023/03/07 07:59:23;;;;;;;5.07;4.07;;;5.10;67.80;;;;;;4996724;28;20454;-73
2023/03/07 08:01:51;;;;;;;4.73;4.13;;;5.10;67.10;;;;;;4996967;28;20449;-73
2023/03/07 08:04:20;;;;;;;5.73;4.23;;;5.20;67.20;;;;;;4996555;28;20456;-73
2023/03/07 08:06:47;;;;;;;4.90;3.97;;;5.30;66.90;;;;;;4996561;28;20504;-74
2023/03/07 08:09:14;;;;;;;5.70;4.17;;;5.30;65.90;;;;;;4996483;28;20484;-73
2023/03/07 08:11:41;;;;;;;4.83;4.33;;;5.50;66.30;;;;;;4997510;28;20477;-72
2023/03/07 08:14:08;;;;;;;4.33;3.93;;;5.60;66.20;;;;;;4996900;28;20504;-73
2023/03/07 08:16:34;;;;;;;5.40;4.70;;;5.50;66.30;;;;;;4996514;28;20531;-74
2023/03/07 08:19:03;;;;;;;4.67;4.17;;;5.60;65.60;;;;;;4996744;28;20457;-73
2023/03/07 08:21:31;;;;;;;5.37;4.43;;;5.60;65.20;;;;;;4996414;28;20849;-73
2023/03/07 08:23:57;;;;;;;7.27;4.37;;;5.80;65.70;;;;;;4996555;28;20464;-73
2023/03/07 08:26:25;;;;;;;4.43;4.00;;;6.00;65.20;;;;;;4996515;28;20469;-74
2023/03/07 08:28:52;;;;;;;4.77;4.27;;;6.40;65.40;;;;;;4996407;28;20902;-73
2023/03/07 08:31:22;;;;;;;4.70;4.00;;;6.80;62.90;;;;;;4996560;28;20508;-72
2023/03/07 08:33:49;;;;;;;5.83;4.67;;;6.90;63.40;;;;;;4996813;28;20445;-72
2023/03/07 08:36:18;;;;;;;4.80;3.63;;;7.00;62.90;;;;;;4995807;28;20489;-73
2023/03/07 08:38:49;;;;;;;4.50;3.90;;;7.10;62.40;;;;;;4995465;28;20975;-74
2023/03/07 08:41:16;;;;;;;4.87;4.23;;;7.10;61.40;;;;;;4995492;28;20512;-73
2023/03/07 08:43:42;;;;;;;5.30;3.90;;;6.70;62.50;;;;;;4995558;28;20452;-73
2023/03/07 08:46:09;;;;;;;6.20;4.10;;;7.00;62.50;;;;;;4995343;28;20465;-73
2023/03/07 08:48:36;;;;;;;5.40;4.77;;;7.00;60.80;;;;;;4995686;28;20450;-73
2023/03/07 08:51:07;;;;;;;4.73;4.13;;;6.60;61.80;;;;;;4995201;28;20817;-73
2023/03/07 08:53:37;;;;;;;4.70;3.97;;;6.50;62.80;;;;;;4995402;28;20445;-73
2023/03/07 08:56:06;;;;;;;5.17;4.30;;;6.50;62.40;;;;;;4995250;28;20855;-73
2023/03/07 08:58:33;;;;;;;4.70;3.83;;;6.60;62.00;;;;;;4995406;28;20465;-74
2023/03/07 09:01:00;;;;;;;5.33;4.57;;;6.90;63.00;;;;;;4995255;28;20453;-73
2023/03/07 09:03:26;;;;;;;4.97;4.27;;;6.70;61.80;;;;;;4995264;28;20449;-73
2023/03/07 09:05:53;;;;;;;5.40;4.50;;;6.80;62.10;;;;;;4995039;28;20830;-72
2023/03/07 09:08:20;;;;;;;4.40;4.00;;;6.70;61.00;;;;;;4995124;28;20445;-73
2023/03/07 09:10:48;;;;;;;5.30;4.30;;;6.80;60.30;;;;;;4995248;28;20453;-73
2023/03/07 09:13:15;;;;;;;4.70;4.23;;;6.80;60.90;;;;;;4995129;28;20629;-72
2023/03/07 09:15:42;;;;;;;4.40;3.03;;;7.00;59.80;;;;;;4994959;28;20600;-73
2023/03/07 09:18:09;;;;;;;4.57;3.53;;;6.90;58.50;;;;;;4994247;28;20857;-74
2023/03/07 09:20:38;;;;;;;4.73;3.20;;;6.80;59.70;;;;;;4994736;28;20854;-73
2023/03/07 09:23:04;;;;;;;3.53;3.00;;;6.70;58.90;;;;;;4994562;28;21001;-73
2023/03/07 09:25:31;;;;;;;4.00;3.60;;;6.60;58.60;;;;;;4994917;28;20472;-73
2023/03/07 09:27:59;;;;;;;4.23;3.80;;;6.60;59.10;;;;;;4994772;28;20464;-73
2023/03/07 09:30:28;;;;;;;4.60;3.20;;;6.60;59.60;;;;;;4994578;28;20495;-73
2023/03/07 09:32:55;;;;;;;4.20;3.33;;;6.30;59.10;;;;;;4994743;28;20460;-73
2023/03/07 09:35:24;;;;;;;4.10;3.10;;;6.20;59.90;;;;;;4994126;28;20994;-73
2023/03/07 09:37:51;;;;;;;4.40;3.20;;;6.10;60.50;;;;;;4994580;28;20821;-73
2023/03/07 09:40:22;;;;;;;3.80;3.37;;;6.10;60.80;;;;;;4994318;28;20501;-73
2023/03/07 09:42:57;;;;;;;4.90;3.97;;;5.90;61.20;;;;;;4994590;28;20438;-74
2023/03/07 09:45:37;;;;;;;4.33;3.60;;;5.80;61.20;;;;;;4994379;28;20479;-73
2023/03/07 09:48:44;;;;;;;4.17;3.10;;;5.80;61.90;;;;;;4994809;28;20418;-74
2023/03/07 09:51:16;;;;;;;3.53;3.23;;;5.80;61.90;;;;;;4994259;28;20516;-73
2023/03/07 09:53:46;;;;;;;4.53;3.80;;;5.70;62.10;;;;;;4994294;28;20450;-74
2023/03/07 09:56:19;;;;;;;4.67;3.57;;;5.70;62.60;;;;;;4994048;28;20496;-73
2023/03/07 09:58:51;;;;;;;4.27;3.37;;;5.70;62.10;;;;;;4994293;28;20433;-73
2023/03/07 10:01:23;;;;;;;4.53;3.93;;;5.50;61.90;;;;;;4993878;28;20430;-73
2023/03/07 10:03:56;;;;;;;3.90;3.27;;;5.30;62.70;;;;;;4994055;28;20754;-74
2023/03/07 10:06:30;;;;;;;3.97;3.30;;;5.10;63.60;;;;;;4993974;28;20484;-73
2023/03/07 10:08:59;;;;;;;4.27;3.83;;;5.10;63.90;;;;;;4994123;28;20488;-73
2023/03/07 10:11:38;;;;;;;4.53;3.67;;;5.30;63.60;;;;;;4994116;28;20458;-73
2023/03/07 10:14:18;;;;;;;4.17;3.70;;;5.40;64.00;;;;;;4993706;28;20425;-72
2023/03/07 10:16:51;;;;;;;5.27;4.13;;;5.50;63.60;;;;;;5009080;23;20497;-75
2023/03/07 10:19:27;;;;;;;3.83;3.20;;;5.40;63.30;;;;;;4993705;28;20884;-72
2023/03/07 10:22:03;;;;;;;4.90;4.20;;;5.50;63.80;;;;;;4994004;28;20429;-72
2023/03/07 10:24:50;;;;;;;5.90;4.20;;;5.30;63.60;;;;;;4993925;28;20440;-73
2023/03/07 10:27:19;;;;;;;4.73;3.83;;;5.20;64.40;;;;;;4993902;28;20527;-75
2023/03/07 10:29:47;;;;;;;4.53;3.73;;;5.10;64.40;;;;;;4997648;28;20452;-73
2023/03/07 10:32:22;;;;;;;4.07;3.27;;;5.10;64.20;;;;;;4997983;28;20456;-72
2023/03/07 10:34:55;;;;;;;4.40;4.00;;;4.90;64.50;;;;;;4997858;28;20429;-73
2023/03/07 10:37:29;;;;;;;5.40;4.63;;;4.80;64.60;;;;;;4997912;28;20572;-75
2023/03/07 10:39:56;;;;;;;5.00;3.70;;;4.90;65.20;;;;;;4997781;28;20441;-74
2023/03/07 10:42:26;;;;;;;4.87;4.20;;;5.00;64.30;;;;;;4997812;28;20452;-75
2023/03/07 10:44:53;;;;;;;4.67;3.80;;;5.10;64.10;;;;;;4997980;28;20461;-76
2023/03/07 10:47:23;;;;;;;4.20;3.70;;;5.20;63.20;;;;;;5004944;28;20484;-75
2023/03/07 10:49:54;;;;;;;4.60;4.07;;;5.20;62.60;;;;;;4997732;28;20457;-76
2023/03/07 10:52:31;;;;;;;6.20;4.17;;;5.10;63.20;;;;;;4997952;28;20445;-74
2023/03/07 10:55:31;;;;;;;4.23;3.30;;;5.10;62.90;;;;;;4997760;28;20496;-76
2023/03/07 10:58:13;;;;;;;3.90;3.03;;;5.20;62.80;;;;;;4997228;28;20919;-75
2023/03/07 11:00:41;;;;;;;4.37;3.57;;;5.30;62.50;;;;;;4997613;28;20440;-75
2023/03/07 11:03:25;;;;;;;5.93;3.80;;;5.20;62.00;;;;;;4997391;28;20508;-77
2023/03/07 11:05:51;;;;;;;4.80;3.43;;;5.30;62.00;;;;;;4997724;28;20470;-75
2023/03/07 11:08:27;;;;;;;4.77;3.77;;;5.30;61.20;;;;;;4997530;28;20453;-74
2023/03/07 11:10:55;;;;;;;4.63;3.93;;;5.20;60.70;;;;;;4997679;28;20433;-76
2023/03/07 11:13:23;;;;;;;4.43;3.87;;;5.20;61.30;;;;;;4997451;28;20454;-73
2023/03/07 11:15:50;;;;;;;4.40;3.83;;;5.30;61.70;;;;;;4997089;28;21002;-73
2023/03/07 11:18:30;;;;;;;3.70;3.30;;;5.30;61.10;;;;;;4997634;28;20434;-75
2023/03/07 11:20:57;;;;;;;4.30;3.90;;;5.40;61.00;;;;;;4997835;28;20447;-76
2023/03/07 11:23:26;;;;;;;4.17;3.13;;;5.60;60.90;;;;;;4996961;28;20875;-76
2023/03/07 11:25:54;;;;;;;3.83;3.30;;;5.70;59.70;;;;;;4996533;28;20497;-75
2023/03/07 11:28:29;;;;;;;5.00;4.20;;;5.50;59.50;;;;;;4997502;28;20540;-77
2023/03/07 11:31:09;;;;;;;5.73;4.50;;;5.60;58.70;;;;;;4998447;28;20455;-76
2023/03/07 11:33:47;;;;;;;4.47;3.67;;;5.60;59.00;;;;;;4997341;28;20496;-76
2023/03/07 11:36:16;;;;;;;4.30;3.57;;;5.70;59.00;;;;;;4996838;28;21005;-76
2023/03/07 11:38:54;;;;;;;4.30;3.57;;;5.50;59.10;;;;;;4997433;28;20457;-76
2023/03/07 11:41:26;;;;;;;4.80;3.80;;;5.50;58.30;;;;;;4996477;28;20442;-77
2023/03/07 11:44:12;;;;;;;4.10;3.23;;;5.50;58.50;;;;;;4997298;28;20981;-75
2023/03/07 11:46:57;;;;;;;4.17;3.70;;;5.60;58.70;;;;;;4997624;28;20561;-76
2023/03/07 11:49:41;;;;;;;4.80;4.23;;;5.60;58.20;;;;;;4999203;28;20504;-76
2023/03/07 11:52:26;;;;;;;4.90;3.63;;;5.40;58.00;;;;;;4997018;28;20438;-76
2023/03/07 11:54:59;;;;;;;4.63;4.13;;;5.40;58.40;;;;;;4997266;28;20429;-77
2023/03/07 11:57:45;;;;;;;4.37;3.07;;;5.40;58.70;;;;;;4996746;28;20493;-76
2023/03/07 12:00:23;;;;;;;5.50;3.33;;;5.50;58.70;;;;;;4996825;28;20551;-75
2023/03/07 12:03:29;;;;;;;3.80;3.30;;;5.40;58.40;;;;;;4996681;28;20441;-75
2023/03/07 12:06:13;;;;;;;5.20;4.27;;;5.40;58.70;;;;;;4994321;28;20508;-76
2023/03/07 12:08:58;;;;;;;4.83;3.80;;;5.30;58.60;;;;;;4994315;28;20511;-76
2023/03/07 12:11:41;;;;;;;4.83;4.00;;;5.10;58.90;;;;;;4995379;28;20476;-76
2023/03/07 12:14:17;;;;;;;3.87;3.20;;;5.10;59.50;;;;;;4996742;28;20430;-76
2023/03/07 12:16:55;;;;;;;4.07;3.03;;;5.10;59.00;;;;;;4996484;28;20496;-75
2023/03/07 12:19:42;;;;;;;4.83;4.33;;;5.10;59.70;;;;;;4997160;28;20434;-76
2023/03/07 12:22:23;;;;;;;4.50;3.43;;;5.30;59.80;;;;;;4997208;28;20919;-76
2023/03/07 12:25:05;;;;;;;5.20;4.57;;;5.20;58.80;;;;;;4997147;28;20434;-75
2023/03/07 12:27:35;;;;;;;4.27;3.47;;;5.10;59.40;;;;;;4997705;28;20461;-75
2023/03/07 12:30:05;;;;;;;5.20;4.07;;;5.20;59.40;;;;;;4995999;28;20935;-76
2023/03/07 12:32:34;;;;;;;5.20;4.30;;;5.30;59.40;;;;;;4995761;28;20453;-76
2023/03/07 12:35:06;;;;;;;4.93;3.93;;;5.50;58.70;;;;;;4996900;28;20457;-76
2023/03/07 12:37:41;;;;;;;5.60;3.80;;;5.80;58.30;;;;;;4995689;28;20496;-75
2023/03/07 12:40:18;;;;;;;4.53;3.60;;;6.00;58.40;;;;;;4996335;28;20484;-76
2023/03/07 12:42:53;;;;;;;4.17;3.77;;;6.20;57.30;;;;;;4995983;28;20795;-73
2023/03/07 12:45:22;;;;;;;3.70;3.30;;;6.40;56.80;;;;;;4995644;28;20425;-75
2023/03/07 12:48:00;;;;;;;4.53;3.50;;;6.60;57.00;;;;;;4995708;28;20437;-74
2023/03/07 12:50:31;;;;;;;4.30;3.73;;;6.60;55.70;;;;;;4995963;28;20433;-76
2023/03/07 12:53:04;;;;;;;5.47;4.00;;;6.60;55.70;;;;;;4995993;28;20433;-73
2023/03/07 12:55:36;;;;;;;4.70;4.07;;;6.60;56.20;;;;;;4996548;28;20500;-74
2023/03/07 12:58:08;;;;;;;4.23;3.30;;;6.60;56.00;;;;;;4995513;28;20496;-74
2023/03/07 13:00:41;;;;;;;4.77;3.30;;;6.70;56.30;;;;;;4995433;28;20453;-73
2023/03/07 13:03:15;;;;;;;3.87;3.47;;;6.80;55.70;;;;;;4995421;28;20440;-75
2023/03/07 13:05:44;;;;;;;4.17;3.23;;;6.60;55.30;;;;;;4995234;28;20783;-75
2023/03/07 13:08:22;;;;;;;3.93;3.10;;;6.30;56.20;;;;;;4995665;28;20532;-74
2023/03/07 13:10:49;;;;;;;3.30;2.57;;;6.40;57.00;;;;;;4995191;28;20445;-74
2023/03/07 13:13:53;;;;;;;4.10;2.60;;;6.40;55.60;;;;;;4994967;28;20478;-73
2023/03/07 13:16:34;;;;;;;3.20;2.30;;;6.40;56.00;;;;;;4995008;28;20576;-74
2023/03/07 13:19:43;;;;;;;3.30;2.50;;;6.20;56.10;;;;;;4995791;28;20504;-75
2023/03/07 13:22:47;;;;;;;3.50;2.70;;;6.00;56.00;;;;;;4988395;28;20460;-74
2023/03/07 13:25:46;;;;;;;3.60;2.80;;;6.10;57.20;;;;;;4995680;28;20504;-73
2023/03/07 13:28:35;;;;;;;3.63;2.97;;;6.20;55.90;;;;;;4995046;28;20425;-73
2023/03/07 13:31:36;;;;;;;3.10;2.20;;;5.90;56.30;;;;;;4995002;28;20449;-74
2023/03/07 13:34:36;;;;;;;2.80;2.20;;;6.00;56.80;;;;;;4995147;28;20436;-74
2023/03/07 13:37:48;;;;;;;3.13;2.27;;;6.20;56.20;;;;;;4993796;28;20493;-76
2023/03/07 13:40:47;;;;;;;3.53;2.80;;;6.30;55.90;;;;;;4995121;28;20867;-74
2023/03/07 13:43:50;;;;;;;2.80;1.93;;;6.60;55.50;;;;;;4995739;28;20446;-74
2023/03/07 13:46:45;;;;;;;5.10;2.47;;;6.60;54.90;;;;;;4995165;28;20477;-74
2023/03/07 13:49:32;;;;;;;3.60;2.40;;;6.70;55.80;;;;;;4995187;28;20517;-73
2023/03/07 13:52:32;;;;;;;3.10;2.07;;;7.10;56.00;;;;;;4995668;28;20433;-74
2023/03/07 13:55:01;;;;;;;3.47;2.27;;;7.40;55.10;;;;;;4994620;28;20980;-74
2023/03/07 13:57:38;;;;;;;4.30;2.90;;;7.80;54.80;;;;;;4994772;28;20551;-75
2023/03/07 14:00:23;;;;;;;3.77;2.90;;;8.10;53.60;;;;;;4994766;28;20438;-76
2023/03/07 14:02:52;;;;;;;3.10;2.50;;;8.20;53.40;;;;;;4994747;28;20470;-74
2023/03/07 14:05:19;;;;;;;3.10;2.30;;;8.30;53.30;;;;;;4996029;28;20453;-73
2023/03/07 14:07:50;;;;;;;3.53;2.73;;;8.30;52.90;;;;;;4996041;28;20885;-75
2023/03/07 14:10:21;;;;;;;3.73;2.80;;;8.10;53.10;;;;;;4997571;28;20434;-74
2023/03/07 14:13:11;;;;;;;3.50;2.53;;;8.10;52.90;;;;;;4996946;28;20441;-75
2023/03/07 14:15:49;;;;;;;3.33;2.53;;;8.00;53.20;;;;;;4994514;28;20430;-75
2023/03/07 14:18:28;;;;;;;3.07;2.43;;;8.00;52.80;;;;;;4994871;28;20473;-74
2023/03/07 14:21:01;;;;;;;3.43;2.30;;;8.20;51.90;;;;;;4993928;28;20429;-74
2023/03/07 14:23:59;;;;;;;3.10;2.10;;;8.50;52.10;;;;;;4995732;28;20441;-75
2023/03/07 14:26:32;;;;;;;3.23;2.47;;;8.80;51.40;;;;;;4994261;28;20484;-74
2023/03/07 14:29:00;;;;;;;3.30;2.57;;;9.40;51.10;;;;;;4995456;28;20442;-75
2023/03/07 14:31:31;;;;;;;3.40;2.10;;;9.60;49.20;;;;;;4995589;28;20453;-75
2023/03/07 14:33:58;;;;;;;2.80;1.90;;;9.70;49.50;;;;;;4995016;28;20426;-75
2023/03/07 14:36:27;;;;;;;4.30;2.40;;;9.90;50.10;;;;;;4994417;28;20548;-74
2023/03/07 14:38:56;;;;;;;3.30;2.20;;;10.10;49.30;;;;;;4993864;28;20474;-75
2023/03/07 14:41:37;;;;;;;3.63;2.53;;;10.30;48.00;;;;;;4993747;28;20480;-74
2023/03/07 14:44:21;;;;;;;3.83;2.50;;;11.20;46.70;;;;;;4993842;28;20537;-74
2023/03/07 14:47:01;;;;;;;2.50;1.83;;;12.80;44.90;;;;;;4993612;28;20469;-75
2023/03/07 14:49:36;;;;;;;3.30;2.23;;;13.70;42.30;;;;;;4993700;28;20445;-76
2023/03/07 14:52:04;;;;;;;4.00;1.97;;;15.00;40.60;;;;;;4993342;28;20930;-76
2023/03/07 14:54:33;;;;;;;3.00;2.00;;;14.30;39.80;;;;;;4993606;28;20458;-75
2023/03/07 14:57:00;;;;;;;2.90;2.00;;;13.40;41.50;;;;;;4993048;28;20838;-75
2023/03/07 14:59:27;;;;;;;2.53;1.60;;;13.50;42.00;;;;;;4994257;28;20527;-75
2023/03/07 15:01:55;;;;;;;2.77;1.70;;;13.60;40.60;;;;;;4993862;28;20449;-74
2023/03/07 15:04:24;;;;;;;3.17;1.87;;;13.10;42.30;;;;;;4994223;28;20456;-73
2023/03/07 15:06:56;;;;;;;3.43;2.27;;;13.30;41.80;;;;;;4993962;28;20480;-74
2023/03/07 15:09:23;;;;;;;2.60;1.73;;;13.30;41.10;;;;;;4994894;28;20433;-75
2023/03/07 15:11:56;;;;;;;3.77;1.73;;;13.60;41.90;;;;;;4994397;28;20442;-74
2023/03/07 15:14:31;;;;;;;3.00;2.07;;;13.80;41.20;;;;;;4994264;28;20445;-74
2023/03/07 15:17:03;;;;;;;3.10;2.17;;;14.50;40.20;;;;;;4997751;28;20488;-75
2023/03/07 15:19:35;;;;;;;2.77;1.73;;;14.80;40.00;;;;;;4997992;28;20437;-75
2023/03/07 15:22:04;;;;;;;3.20;2.10;;;15.50;39.00;;;;;;4997352;28;20488;-75
2023/03/07 15:24:33;;;;;;;2.90;2.03;;;15.80;38.90;;;;;;4997797;28;20511;-75
2023/03/07 15:27:01;;;;;;;2.90;1.73;;;16.30;37.80;;;;;;4997433;28;20496;-75
2023/03/07 15:29:30;;;;;;;3.07;2.03;;;16.00;37.50;;;;;;4999026;28;20453;-75
2023/03/07 15:32:00;;;;;;;2.97;2.17;;;16.00;38.10;;;;;;4997867;28;20449;-74
2023/03/07 15:34:29;;;;;;;3.40;2.93;;;16.40;37.40;;;;;;4998150;28;20464;-74
2023/03/07 15:37:12;;;;;;;2.87;2.17;;;15.40;38.60;;;;;;4997761;28;20470;-74
2023/03/07 15:39:39;;;;;;;3.07;2.03;;;14.50;39.80;;;;;;4997825;28;20433;-75
2023/03/07 15:42:07;;;;;;;2.57;1.90;;;13.30;41.80;;;;;;4998160;28;20453;-74
2023/03/07 15:44:35;;;;;;;3.10;2.17;;;12.20;43.50;;;;;;4997898;28;20449;-73
2023/03/07 15:47:13;;;;;;;3.23;2.60;;;11.70;45.10;;;;;;4997626;28;20472;-75
2023/03/07 15:49:45;;;;;;;3.33;2.63;;;11.00;45.70;;;;;;4996997;28;20495;-75
2023/03/07 15:52:24;;;;;;;3.67;2.70;;;10.20;47.70;;;;;;4997065;28;20443;-72
2023/03/07 15:54:53;;;;;;;3.20;2.10;;;9.80;49.00;;;;;;4996857;28;20434;-75
2023/03/07 15:57:22;;;;;;;3.80;2.23;;;9.50;50.10;;;;;;4996823;28;20465;-73
2023/03/07 15:59:53;;;;;;;3.13;1.77;;;9.30;50.30;;;;;;4996413;28;20526;-73
2023/03/07 16:02:38;;;;;;;3.40;1.83;;;8.90;50.80;;;;;;4996409;28;20485;-74
2023/03/07 16:05:26;;;;;;;3.13;1.93;;;8.70;51.40;;;;;;4996188;28;20811;-74
2023/03/07 16:07:54;;;;;;;3.70;2.40;;;8.80;51.70;;;;;;4996630;28;20430;-74
2023/03/07 16:10:25;;;;;;;3.37;2.47;;;8.70;51.70;;;;;;4996442;28;20500;-73
2023/03/07 16:12:52;;;;;;;3.10;2.27;;;8.50;52.20;;;;;;4996409;28;20508;-75
2023/03/07 16:15:21;;;;;;;4.40;2.23;;;8.50;52.30;;;;;;4996564;28;20445;-73
2023/03/07 16:17:55;;;;;;;3.27;2.20;;;8.50;52.50;;;;;;5080089;23;20497;-74
2023/03/07 16:20:24;;;;;;;3.30;2.20;;;8.50;52.70;;;;;;4996014;28;20993;-74
2023/03/07 16:22:51;;;;;;;2.70;2.10;;;8.40;53.20;;;;;;4996170;28;20477;-73
2023/03/07 16:25:19;;;;;;;3.27;2.30;;;8.40;53.30;;;;;;4996001;28;20452;-72
2023/03/07 16:27:50;;;;;;;3.77;2.77;;;8.30;53.70;;;;;;4995577;28;20473;-74
2023/03/07 16:30:18;;;;;;;4.00;3.13;;;8.10;53.80;;;;;;4995890;28;20462;-72
2023/03/07 16:32:45;;;;;;;3.50;2.50;;;8.10;53.70;;;;;;4995796;28;20468;-74
2023/03/07 16:35:19;;;;;;;3.00;2.03;;;8.00;53.70;;;;;;4995812;28;20449;-72
2023/03/07 16:37:45;;;;;;;3.43;2.77;;;8.00;54.10;;;;;;4995625;28;20489;-74
2023/03/07 16:40:13;;;;;;;3.90;2.80;;;8.00;54.20;;;;;;4995390;28;20825;-74
2023/03/07 16:42:43;;;;;;;3.50;2.40;;;7.60;54.10;;;;;;4995663;28;20459;-74
2023/03/07 16:45:17;;;;;;;3.23;2.50;;;7.40;54.90;;;;;;4995549;28;20457;-74
2023/03/07 16:47:44;;;;;;;3.40;2.80;;;7.40;55.30;;;;;;4995120;28;20997;-74
2023/03/07 16:50:14;;;;;;;4.13;2.63;;;7.30;55.70;;;;;;4995232;28;20962;-74
2023/03/07 16:52:42;;;;;;;3.00;2.30;;;7.30;55.20;;;;;;4995112;28;20875;-73
2023/03/07 16:55:12;;;;;;;3.80;2.60;;;7.20;55.60;;;;;;4995370;28;20452;-74
2023/03/07 16:57:39;;;;;;;4.23;2.90;;;7.20;56.00;;;;;;4995152;28;20504;-74
2023/03/07 17:00:08;;;;;;;3.63;2.70;;;7.20;55.80;;;;;;4995252;28;20512;-74
2023/03/07 17:02:35;;;;;;;2.80;2.03;;;7.30;55.90;;;;;;4995190;28;20450;-75
2023/03/07 17:05:02;;;;;;;3.27;2.20;;;7.30;55.90;;;;;;4995115;28;20448;-74
2023/03/07 17:07:29;;;;;;;3.70;3.17;;;7.20;55.70;;;;;;4995111;28;20469;-74
2023/03/07 17:09:57;;;;;;;4.10;3.00;;;7.10;55.80;;;;;;4995044;28;20437;-73
2023/03/07 17:12:24;;;;;;;3.17;2.23;;;7.00;56.00;;;;;;4994672;28;20993;-73
2023/03/07 17:14:52;;;;;;;3.53;2.93;;;6.80;56.30;;;;;;4995124;28;20457;-75
2023/03/07 17:17:24;;;;;;;3.33;2.50;;;7.00;56.00;;;;;;4994816;28;20524;-74
2023/03/07 17:19:51;;;;;;;4.67;3.00;;;7.10;55.50;;;;;;4994793;28;20473;-74